Dades meteomassalio
Diari Summary for Noviembre 5, 2017 Units:  Metric    English   Both
« Previous Day
Next Day »
Diari Semanal Mensual Anual Personalitzat
  Maxima: Minima: Mijana:
Temperatura: -17.8 °C -12.2 °C -10.7 °C
Rosada: -17.8 °C -15.2 °C -14 °C
Humitat: Humidity % 51 % 68 %
Velocitat del vent: 0 km/h 36.2 km/h 68.9 km/h
Racha vent: 0 km/h - -
Vent:- - SW
Pressio: 0 hPa 34371.3 hPa -
Pluja: 7.62 mm    
Historical Graphs
 
 
Tabular Data for Noviembre 5, 2017
Time Temperature Dew Point Pressure Wind Wind Speed Wind Gust Humidity Rainfall Rate (Hourly) solar Conditions
-17.8 °C -17.8 °C 0 hPa Calm     Humidity % 0 mm SolarRadiationWatts/m^2 W/m2 Conditions
00:00 -10.4 °C -11.8 °C 34371.3 hPa SW 36.2 km/h 36.2 km/h 84 % 0 mm 0.0 W/m2 CLR
00:05 -10.4 °C -11.8 °C 34371.3 hPa SW 46.7 km/h 46.7 km/h 84 % 0 mm 0.0 W/m2 RA
00:10 -10.4 °C -11.8 °C 34371.3 hPa SW 44.7 km/h 44.7 km/h 84 % 0 mm 0.0 W/m2 CLR
00:12 -10.4 °C -11.8 °C 34371.3 hPa SW 41.4 km/h 41.4 km/h 84 % 0 mm 0.0 W/m2 CLR
00:17 -10.4 °C -11.8 °C 34371.3 hPa SSW 50.7 km/h 50.7 km/h 84 % 0 mm 0.0 W/m2 CLR
00:22 -10.7 °C -12.3 °C 34371.3 hPa WSW 50.7 km/h 50.7 km/h 83 % 0 mm 0.0 W/m2 CLR
00:27 -10.7 °C -12.3 °C 34371.3 hPa SSW 44.7 km/h 44.7 km/h 83 % 0 mm 0.0 W/m2 CLR
00:32 -10.4 °C -12.1 °C 34371.3 hPa SSW 44.7 km/h 44.7 km/h 82 % 0 mm 0.0 W/m2 CLR
00:37 -10.7 °C -12.3 °C 34384.8 hPa SSW 44.7 km/h 44.7 km/h 82 % 0 mm 0.0 W/m2 CLR
00:42 -10.7 °C -12.3 °C 34384.8 hPa SSW 49.2 km/h 49.2 km/h 82 % 0 mm 0.0 W/m2 CLR
00:47 -10.7 °C -12.4 °C 34384.8 hPa SW 38.8 km/h 38.8 km/h 81 % 0 mm 0.0 W/m2 CLR
00:52 -10.7 °C -12.4 °C 34384.8 hPa SW 50.7 km/h 50.7 km/h 81 % 0 mm 0.0 W/m2 CLR
00:57 -10.7 °C -12.4 °C 34384.8 hPa SW 59.5 km/h 59.5 km/h 81 % 0 mm 0.0 W/m2 CLR
01:02 -10.7 °C -12.6 °C 34384.8 hPa SW 50.7 km/h 50.7 km/h 80 % 0 mm 0.0 W/m2 CLR
01:07 -10.7 °C -12.6 °C 34384.8 hPa SW 47.6 km/h 47.6 km/h 80 % 0 mm 0.0 W/m2 CLR
01:12 -10.7 °C -12.4 °C 34384.8 hPa SW 47.6 km/h 47.6 km/h 81 % 0 mm 0.0 W/m2 CLR
01:17 -10.7 °C -12.6 °C 34384.8 hPa SW 41.7 km/h 41.7 km/h 80 % 0 mm 0.0 W/m2 CLR
01:22 -10.7 °C -12.6 °C 34384.8 hPa WSW 59.5 km/h 59.5 km/h 80 % 0 mm 0.0 W/m2 CLR
01:27 -10.7 °C -12.6 °C 34395 hPa SW 44.7 km/h 44.7 km/h 80 % 0 mm 0.0 W/m2 CLR
01:32 -10.7 °C -12.6 °C 34395 hPa SW 50.7 km/h 50.7 km/h 80 % 0 mm 0.0 W/m2 CLR
01:37 -10.7 °C -12.6 °C 34395 hPa SW 51.8 km/h 51.8 km/h 80 % 0 mm 0.0 W/m2 CLR
01:42 -10.7 °C -12.4 °C 34395 hPa SSW 68.6 km/h 68.6 km/h 81 % 0 mm 0.0 W/m2 CLR
01:47 -10.7 °C -12.4 °C 34395 hPa SSW 51.8 km/h 51.8 km/h 81 % 0 mm 0.0 W/m2 CLR
01:52 -10.7 °C -12.4 °C 34395 hPa SSW 56.6 km/h 56.6 km/h 81 % 0 mm 0.0 W/m2 CLR
01:57 -10.7 °C -12.4 °C 34395 hPa SW 49.2 km/h 49.2 km/h 81 % 0 mm 0.0 W/m2 CLR
02:02 -10.7 °C -12.4 °C 34395 hPa SSW 59.5 km/h 59.5 km/h 81 % 0 mm 0.0 W/m2 CLR
02:07 -10.7 °C -12.3 °C 34395 hPa SSW 62.6 km/h 62.6 km/h 82 % 0 mm 0.0 W/m2 CLR
02:12 -10.7 °C -12.3 °C 34395 hPa SW 59.5 km/h 59.5 km/h 82 % 0 mm 0.0 W/m2 CLR
02:17 -10.7 °C -12.3 °C 34395 hPa SW 44.7 km/h 44.7 km/h 82 % 0 mm 0.0 W/m2 CLR
02:22 -10.7 °C -12.4 °C 34395 hPa SW 56.6 km/h 56.6 km/h 81 % 0 mm 0.0 W/m2 CLR
02:27 -11 °C -12.7 °C 34395 hPa SW 77.4 km/h 77.4 km/h 81 % 0 mm 0.0 W/m2 CLR
02:32 -11 °C -12.7 °C 34395 hPa SSW 62.6 km/h 62.6 km/h 81 % 0 mm 0.0 W/m2 CLR
02:37 -11 °C -12.7 °C 34395 hPa SW 47.6 km/h 47.6 km/h 81 % 0 mm 0.0 W/m2 CLR
02:42 -10.7 °C -12.4 °C 34395 hPa SW 64.7 km/h 64.7 km/h 81 % 0 mm 0.0 W/m2 CLR
02:47 -10.7 °C -12.6 °C 34395 hPa SW 65.5 km/h 65.5 km/h 80 % 0 mm 0.0 W/m2 CLR
02:53 -11 °C -12.8 °C 34395 hPa SW 50.7 km/h 50.7 km/h 80 % 0 mm 0.0 W/m2 CLR
02:58 -11 °C -12.8 °C 34405.1 hPa SW 50.7 km/h 50.7 km/h 80 % 0 mm 0.0 W/m2 CLR
03:03 -11 °C -12.9 °C 34405.1 hPa SSW 53.6 km/h 53.6 km/h 79 % 0 mm 0.0 W/m2 CLR
03:08 -10.7 °C -12.7 °C 34405.1 hPa SW 65.5 km/h 65.5 km/h 79 % 0 mm 0.0 W/m2 CLR
03:13 -10.7 °C -12.7 °C 34405.1 hPa SSW 64.7 km/h 64.7 km/h 79 % 0 mm 0.0 W/m2 CLR
03:18 -10.7 °C -12.7 °C 34405.1 hPa SW 59.5 km/h 59.5 km/h 79 % 0 mm 0.0 W/m2 CLR
03:23 -10.7 °C -12.7 °C 34405.1 hPa SW 59.5 km/h 59.5 km/h 79 % 0 mm 0.0 W/m2 CLR
03:28 -10.7 °C -12.7 °C 34405.1 hPa SW 50.7 km/h 50.7 km/h 79 % 0 mm 0.0 W/m2 CLR
03:33 -11 °C -12.9 °C 34405.1 hPa SW 50.7 km/h 50.7 km/h 79 % 0 mm 0.0 W/m2 CLR
03:38 -11 °C -12.9 °C 34405.1 hPa SSW 56.6 km/h 56.6 km/h 79 % 0 mm 0.0 W/m2 CLR
03:43 -11 °C -12.9 °C 34405.1 hPa SSW 53.6 km/h 53.6 km/h 79 % 0 mm 0.0 W/m2 CLR
03:48 -11 °C -13.1 °C 34405.1 hPa SW 56.6 km/h 56.6 km/h 78 % 0 mm 0.0 W/m2 CLR
03:53 -10.7 °C -12.7 °C 34405.1 hPa SW 56.6 km/h 56.6 km/h 79 % 0 mm 0.0 W/m2 CLR
03:58 -10.7 °C -12.7 °C 34405.1 hPa SW 59.5 km/h 59.5 km/h 79 % 0 mm 0.0 W/m2 CLR
04:03 -10.7 °C -12.7 °C 34405.1 hPa SW 68.6 km/h 68.6 km/h 78 % 0 mm 0.0 W/m2 CLR
04:08 -10.7 °C -12.7 °C 34405.1 hPa SW 62.6 km/h 62.6 km/h 78 % 0 mm 0.0 W/m2 CLR
04:13 -10.7 °C -12.7 °C 34405.1 hPa SW 59.5 km/h 59.5 km/h 78 % 0 mm 0.0 W/m2 CLR
04:19 -10.7 °C -12.7 °C 34418.7 hPa SW 57 km/h 57 km/h 78 % 0 mm 0.0 W/m2 CLR
04:21 -10.7 °C -12.7 °C 34405.1 hPa SSW 53.6 km/h 53.6 km/h 78 % 0 mm 0.0 W/m2 CLR
04:23 -10.7 °C -12.7 °C 34418.7 hPa SW 59.5 km/h 59.5 km/h 78 % 0 mm 0.0 W/m2 CLR
04:25 -10.7 °C -12.7 °C 34418.7 hPa SW 68.6 km/h 68.6 km/h 78 % 0 mm 0.0 W/m2 CLR
04:27 -10.7 °C -12.7 °C 34418.7 hPa SW 59.5 km/h 59.5 km/h 78 % 0 mm 0.0 W/m2 CLR
04:29 -10.7 °C -12.7 °C 34405.1 hPa WSW 69.8 km/h 69.8 km/h 78 % 0 mm 0.0 W/m2 CLR
04:32 -10.7 °C -12.7 °C 34405.1 hPa SW 65.5 km/h 65.5 km/h 78 % 7.62 mm 0.0 W/m2 RA
04:37 -10.7 °C -12.7 °C 34418.7 hPa SW 59.5 km/h 59.5 km/h 78 % 7.62 mm 0.0 W/m2 CLR
04:38 -10.7 °C -12.7 °C 34418.7 hPa SW 47.6 km/h 47.6 km/h 78 % 7.62 mm 0.0 W/m2 CLR
04:43 -10.7 °C -12.7 °C 34418.7 hPa WSW 65.5 km/h 65.5 km/h 78 % 7.62 mm 0.0 W/m2 CLR
04:48 -10.7 °C -12.7 °C 34418.7 hPa SW 62.6 km/h 62.6 km/h 78 % 7.62 mm 0.0 W/m2 CLR
04:53 -10.7 °C -12.7 °C 34418.7 hPa WSW 71.5 km/h 71.5 km/h 78 % 7.62 mm 0.0 W/m2 CLR
04:58 -10.7 °C -12.7 °C 34428.8 hPa SW 47.6 km/h 47.6 km/h 78 % 7.62 mm 0.0 W/m2 CLR
05:03 -10.7 °C -12.7 °C 34428.8 hPa SW 50.7 km/h 50.7 km/h 78 % 7.62 mm 0.0 W/m2 CLR
05:08 -10.7 °C -12.7 °C 34428.8 hPa WSW 71.5 km/h 71.5 km/h 78 % 7.62 mm 0.0 W/m2 CLR
05:13 -10.7 °C -12.9 °C 34442.4 hPa SW 56.6 km/h 56.6 km/h 77 % 7.62 mm 0.0 W/m2 CLR
05:18 -10.7 °C -12.9 °C 34442.4 hPa SW 59.5 km/h 59.5 km/h 77 % 7.62 mm 0.0 W/m2 CLR
05:28 -10.7 °C -12.9 °C 34442.4 hPa SW 50.7 km/h 50.7 km/h 77 % 7.62 mm 0.0 W/m2 CLR
05:33 -11 °C -13.2 °C 34452.6 hPa SW 62.6 km/h 62.6 km/h 77 % 0 mm 0.0 W/m2 CLR
05:38 -10.7 °C -12.9 °C 34452.6 hPa WSW 54.4 km/h 54.4 km/h 76 % 0 mm 0.0 W/m2 CLR
05:43 -10.7 °C -12.9 °C 34452.6 hPa WSW 50.7 km/h 50.7 km/h 76 % 0 mm 0.0 W/m2 CLR
05:48 -10.7 °C -12.9 °C 34452.6 hPa SW 68.6 km/h 68.6 km/h 76 % 0 mm 0.0 W/m2 CLR
05:53 -11 °C -13.3 °C 34452.6 hPa SSW 50.7 km/h 50.7 km/h 76 % 0 mm 0.0 W/m2 CLR
05:58 -11 °C -13.3 °C 34452.6 hPa WSW 50.7 km/h 50.7 km/h 76 % 0 mm 0.0 W/m2 CLR
06:03 -11 °C -13.3 °C 34452.6 hPa SW 62.6 km/h 62.6 km/h 76 % 0 mm 0.0 W/m2 CLR
06:08 -11 °C -13.3 °C 34452.6 hPa West 69.8 km/h 69.8 km/h 76 % 0 mm 0.0 W/m2 CLR
06:13 -11 °C -13.4 °C 34452.6 hPa SSW 74.5 km/h 74.5 km/h 75 % 0 mm 0.0 W/m2 CLR
06:18 -11 °C -13.4 °C 34452.6 hPa WSW 69.8 km/h 69.8 km/h 75 % 0 mm 0.0 W/m2 CLR
06:23 -11 °C -13.4 °C 34452.6 hPa SW 62.6 km/h 62.6 km/h 75 % 0 mm 0.0 W/m2 CLR
06:28 -11 °C -13.5 °C 34462.7 hPa SW 86.4 km/h 86.4 km/h 74 % 0 mm 0.0 W/m2 CLR
06:33 -11 °C -13.5 °C 34452.6 hPa SW 68.6 km/h 68.6 km/h 74 % 0 mm 0.0 W/m2 CLR
06:38 -11 °C -13.5 °C 34462.7 hPa SW 74.5 km/h 74.5 km/h 74 % 0 mm 0.0 W/m2 CLR
06:43 -11 °C -13.5 °C 34476.3 hPa SW 62.1 km/h 62.1 km/h 74 % 0 mm 0.0 W/m2 CLR
06:48 -11 °C -13.5 °C 34462.7 hPa SW 65.5 km/h 65.5 km/h 74 % 0 mm 0.0 W/m2 CLR
06:53 -11 °C -13.6 °C 34462.7 hPa SW 77.4 km/h 77.4 km/h 73 % 0 mm 0.0 W/m2 CLR
06:58 -11 °C -13.6 °C 34462.7 hPa SW 77.4 km/h 77.4 km/h 73 % 0 mm 0.0 W/m2 CLR
07:03 -11 °C -13.6 °C 34476.3 hPa WSW 83.4 km/h 83.4 km/h 73 % 0 mm 0.0 W/m2 CLR
07:08 -11 °C -13.6 °C 34476.3 hPa SW 59.5 km/h 59.5 km/h 73 % 0 mm 0.0 W/m2 CLR
07:13 -11.3 °C -13.9 °C 34476.3 hPa SW 57 km/h 57 km/h 73 % 0 mm 0.0 W/m2 CLR
07:18 -11.3 °C -13.9 °C 34476.3 hPa SSW 50.7 km/h 50.7 km/h 73 % 0 mm 0.0 W/m2 CLR
07:23 -11.3 °C -13.9 °C 34476.3 hPa WSW 74.5 km/h 74.5 km/h 73 % 0 mm 0.0 W/m2 CLR
07:28 -11.3 °C -13.9 °C 34486.4 hPa SW 83.4 km/h 83.4 km/h 73 % 0 mm 0.0 W/m2 OVC
07:33 -11.3 °C -13.8 °C 34496.6 hPa SW 77.4 km/h 77.4 km/h 74 % 0 mm 0.0 W/m2 OVC
07:38 -11.3 °C -13.8 °C 34496.6 hPa WSW 53.6 km/h 53.6 km/h 74 % 0 mm 5.0 W/m2 OVC
07:43 -11.3 °C -13.8 °C 34496.6 hPa SW 74.5 km/h 74.5 km/h 74 % 0 mm 7.0 W/m2 OVC
07:48 -11.3 °C -13.8 °C 34496.6 hPa SSW 62.6 km/h 62.6 km/h 74 % 0 mm 7.0 W/m2 OVC
07:53 -11.3 °C -13.8 °C 34510.1 hPa SSW 59.5 km/h 59.5 km/h 74 % 0 mm 9.0 W/m2 OVC
07:58 -11.3 °C -13.8 °C 34510.1 hPa SW 53.6 km/h 53.6 km/h 74 % 0 mm 9.0 W/m2 OVC
08:03 -11.3 °C -13.8 °C 34520.3 hPa SW 59.5 km/h 59.5 km/h 74 % 0 mm 11.0 W/m2 OVC
08:08 -11.3 °C -13.8 °C 34520.3 hPa SSW 65.5 km/h 65.5 km/h 74 % 0 mm 11.0 W/m2 OVC
08:13 -11.3 °C -13.9 °C 34533.8 hPa SSW 56.6 km/h 56.6 km/h 73 % 0 mm 12.0 W/m2 OVC
08:18 -11.3 °C -13.9 °C 34533.8 hPa SW 68.6 km/h 68.6 km/h 73 % 0 mm 12.0 W/m2 OVC
08:23 -11.3 °C -13.9 °C 34533.8 hPa SW 56.6 km/h 56.6 km/h 73 % 0 mm 14.0 W/m2 OVC
08:28 -11.6 °C -14.1 °C 34533.8 hPa SW 56.6 km/h 56.6 km/h 74 % 0 mm 14.0 W/m2 OVC
08:34 -11.6 °C -14.1 °C 34533.8 hPa WSW 68.6 km/h 68.6 km/h 74 % 0 mm 16.0 W/m2 OVC
08:39 -11.6 °C -14.1 °C 34544 hPa WSW 68.6 km/h 68.6 km/h 74 % 0 mm 19.0 W/m2 OVC
08:44 -11.6 °C -14.1 °C 34544 hPa SW 54.4 km/h 54.4 km/h 74 % 0 mm 28.0 W/m2 BKN
08:49 -11.6 °C -14.1 °C 34544 hPa SSW 80.5 km/h 80.5 km/h 74 % 0 mm 77.0 W/m2 BKN
08:54 -11.3 °C -13.9 °C 34544 hPa WSW 68.6 km/h 68.6 km/h 73 % 0 mm 58.0 W/m2 BKN
08:59 -11.3 °C -13.9 °C 34554.1 hPa WSW 89.3 km/h 89.3 km/h 73 % 0 mm 144.0 W/m2 BKN
09:04 -11.3 °C -13.9 °C 34554.1 hPa SSW 50.7 km/h 52.6 km/h 73 % 0 mm 195.0 W/m2 FEW
09:09 -11.3 °C -14 °C 34554.1 hPa SSW 59.5 km/h 59.5 km/h 72 % 0 mm 156.0 W/m2 CLR
09:14 -11.3 °C -14.2 °C 34567.7 hPa SW 74.5 km/h 74.5 km/h 70 % 0 mm 220.0 W/m2 CLR
09:19 -11 °C -13.9 °C 34567.7 hPa SW 74.5 km/h 74.5 km/h 70 % 0 mm 192.0 W/m2 CLR
09:24 -11 °C -14.1 °C 34567.7 hPa SW 62.6 km/h 62.6 km/h 69 % 0 mm 176.0 W/m2 CLR
09:29 -11 °C -14.1 °C 34577.8 hPa SW 44.7 km/h 44.7 km/h 69 % 0 mm 232.0 W/m2 CLR
09:34 -11 °C -14.2 °C 34577.8 hPa SSW 72.6 km/h 72.6 km/h 68 % 0 mm 279.0 W/m2 CLR
09:39 -11 °C -14.2 °C 34591.4 hPa WSW 68.6 km/h 68.6 km/h 68 % 0 mm 290.0 W/m2 CLR
09:44 -11 °C -14.2 °C 34591.4 hPa WSW 68.6 km/h 68.6 km/h 68 % 0 mm 301.0 W/m2 CLR
09:49 -10.7 °C -14 °C 34591.4 hPa WSW 68.6 km/h 68.6 km/h 67 % 0 mm 313.0 W/m2 CLR
09:54 -10.7 °C -14 °C 34577.8 hPa SW 53.6 km/h 53.6 km/h 67 % 0 mm 322.0 W/m2 CLR
09:59 -10.7 °C -14.3 °C 34577.8 hPa SW 68.6 km/h 68.6 km/h 65 % 0 mm 339.0 W/m2 CLR
10:04 -10.7 °C -14.3 °C 34577.8 hPa WSW 77.4 km/h 77.4 km/h 65 % 0 mm 348.0 W/m2 CLR
10:09 -10.7 °C -14.4 °C 34577.8 hPa SW 64.7 km/h 64.7 km/h 64 % 0 mm 360.0 W/m2 CLR
10:14 -10.4 °C -14.2 °C 34577.8 hPa WSW 83.4 km/h 83.4 km/h 63 % 0 mm 371.0 W/m2 CLR
10:19 -10.4 °C -14.3 °C 34577.8 hPa SW 98.3 km/h 98.3 km/h 62 % 0 mm 387.0 W/m2 CLR
10:24 -10.4 °C -14.2 °C 34591.4 hPa SW 68.6 km/h 68.6 km/h 63 % 0 mm 397.0 W/m2 CLR
10:29 -10.4 °C -14.2 °C 34591.4 hPa WSW 71.5 km/h 71.5 km/h 63 % 0 mm 406.0 W/m2 CLR
10:34 -10.4 °C -14.3 °C 34591.4 hPa WSW 92.4 km/h 92.4 km/h 62 % 0 mm 417.0 W/m2 CLR
10:39 -10.4 °C -14.3 °C 34591.4 hPa SW 88 km/h 88 km/h 62 % 0 mm 427.0 W/m2 CLR
10:44 -10.4 °C -14.3 °C 34577.8 hPa SW 88 km/h 88 km/h 62 % 0 mm 438.0 W/m2 CLR
10:49 -10.4 °C -14.3 °C 34591.4 hPa WSW 69.8 km/h 69.8 km/h 62 % 0 mm 446.0 W/m2 CLR
10:54 -10.1 °C -14.2 °C 34591.4 hPa SW 80.5 km/h 80.5 km/h 61 % 0 mm 454.0 W/m2 CLR
10:59 -10.1 °C -14.2 °C 34591.4 hPa WSW 80.5 km/h 80.5 km/h 61 % 0 mm 462.0 W/m2 CLR
11:04 -10.1 °C -14.2 °C 34591.4 hPa SW 62.6 km/h 62.6 km/h 61 % 0 mm 468.0 W/m2 CLR
11:09 -10.1 °C -14.4 °C 34591.4 hPa SW 83.4 km/h 83.4 km/h 59 % 0 mm 480.0 W/m2 CLR
11:14 -10.1 °C -14.4 °C 34601.5 hPa SW 95.3 km/h 95.3 km/h 59 % 0 mm 503.0 W/m2 CLR
11:19 -10.1 °C -14.4 °C 34591.4 hPa West 68.6 km/h 68.6 km/h 59 % 0 mm 503.0 W/m2 CLR
11:24 -9.8 °C -14.3 °C 34591.4 hPa SW 68.6 km/h 68.6 km/h 58 % 0 mm 508.0 W/m2 CLR
11:29 -9.8 °C -14.3 °C 34591.4 hPa WSW 68.6 km/h 68.6 km/h 58 % 0 mm 496.0 W/m2 CLR
11:34 -9.8 °C -14.3 °C 34591.4 hPa WSW 65.5 km/h 65.5 km/h 58 % 0 mm 527.0 W/m2 CLR
11:39 -9.8 °C -14.4 °C 34591.4 hPa SW 83.4 km/h 83.4 km/h 57 % 0 mm 538.0 W/m2 CLR
11:49 -9.8 °C -14.3 °C 34591.4 hPa SW 85.5 km/h 85.5 km/h 58 % 0 mm 536.0 W/m2 CLR
11:54 -9.8 °C -14.3 °C 34591.4 hPa SW 83.4 km/h 83.4 km/h 58 % 0 mm 550.0 W/m2 CLR
11:59 -9.8 °C -14.4 °C 34577.8 hPa SW 77.4 km/h 77.4 km/h 57 % 0 mm 568.0 W/m2 CLR
12:04 -9.4 °C -14.1 °C 34577.8 hPa WSW 85.5 km/h 85.5 km/h 57 % 0 mm 547.0 W/m2 CLR
12:09 -9.4 °C -14.1 °C 34577.8 hPa West 95.3 km/h 95.3 km/h 57 % 0 mm 548.0 W/m2 CLR
12:14 -9.4 °C -14.1 °C 34577.8 hPa WSW 98.3 km/h 98.3 km/h 57 % 0 mm 548.0 W/m2 CLR
12:19 -9.4 °C -14.1 °C 34591.4 hPa SW 110.2 km/h 110.2 km/h 57 % 0 mm 552.0 W/m2 CLR
12:24 -9.4 °C -14.3 °C 34577.8 hPa WSW 101.2 km/h 101.2 km/h 56 % 0 mm 548.0 W/m2 CLR
12:29 -9.4 °C -14.1 °C 34577.8 hPa SW 80.5 km/h 80.5 km/h 57 % 0 mm 555.0 W/m2 CLR
12:34 -9.4 °C -14.1 °C 34577.8 hPa SW 104.3 km/h 104.3 km/h 57 % 0 mm 561.0 W/m2 CLR
12:39 -9.4 °C -14.1 °C 34577.8 hPa SW 74.5 km/h 74.5 km/h 57 % 0 mm 555.0 W/m2 CLR
12:44 -9.4 °C -14.3 °C 34577.8 hPa SW 93.2 km/h 93.2 km/h 56 % 0 mm 564.0 W/m2 CLR
12:49 -9.1 °C -13.8 °C 34567.7 hPa SSW 83.4 km/h 83.4 km/h 57 % 0 mm 605.0 W/m2 CLR
12:54 -9.4 °C -14.3 °C 34577.8 hPa SW 92.4 km/h 92.4 km/h 56 % 0 mm 606.0 W/m2 CLR
12:59 -9.4 °C -14.3 °C 34577.8 hPa WSW 86.4 km/h 86.4 km/h 56 % 0 mm 596.0 W/m2 CLR
13:04 -9.1 °C -14 °C 34577.8 hPa SW 68.6 km/h 68.6 km/h 56 % 0 mm 715.0 W/m2 CLR
13:05 -9.1 °C -14 °C 34577.8 hPa SW 68.6 km/h 68.6 km/h 56 % 0 mm 712.0 W/m2 CLR
13:10 -9.1 °C -14.3 °C 34577.8 hPa SW 101.2 km/h 101.2 km/h 54 % 0 mm 603.0 W/m2 CLR
13:15 -9.1 °C -14.1 °C 34577.8 hPa WSW 74.5 km/h 74.5 km/h 55 % 0 mm 629.0 W/m2 CLR
13:20 -9.1 °C -14.1 °C 34577.8 hPa West 74.5 km/h 74.5 km/h 55 % 0 mm 640.0 W/m2 CLR
13:25 -9.1 °C -14.3 °C 34577.8 hPa WSW 83.4 km/h 83.4 km/h 54 % 0 mm 698.0 W/m2 CLR
13:30 -9.4 °C -14.4 °C 34591.4 hPa SW 89.3 km/h 89.3 km/h 55 % 0 mm 285.0 W/m2 CLR
13:35 -9.4 °C -14.4 °C 34577.8 hPa SW 83.4 km/h 83.4 km/h 55 % 0 mm 339.0 W/m2 CLR
13:40 -9.4 °C -14.4 °C 34577.8 hPa WSW 53.6 km/h 53.6 km/h 55 % 0 mm 624.0 W/m2 CLR
13:45 -9.1 °C -14.1 °C 34577.8 hPa WSW 71.5 km/h 71.5 km/h 55 % 0 mm 473.0 W/m2 CLR
13:50 -8.8 °C -14 °C 34577.8 hPa SSW 74.5 km/h 74.5 km/h 54 % 0 mm 578.0 W/m2 CLR
13:55 -8.8 °C -14 °C 34577.8 hPa WSW 85.5 km/h 85.5 km/h 54 % 0 mm 534.0 W/m2 CLR
14:00 -9.1 °C -14.3 °C 34577.8 hPa WSW 86.4 km/h 86.4 km/h 54 % 0 mm 527.0 W/m2 CLR
14:05 -9.1 °C -14.3 °C 34577.8 hPa SW 59.5 km/h 59.5 km/h 54 % 0 mm 548.0 W/m2 CLR
14:10 -8.8 °C -14.2 °C 34577.8 hPa SW 64.7 km/h 64.7 km/h 53 % 0 mm 573.0 W/m2 CLR
14:15 -8.8 °C -14.2 °C 34577.8 hPa SW 59.5 km/h 59.5 km/h 53 % 0 mm 132.0 W/m2 CLR
14:20 -9.4 °C -14.6 °C 34577.8 hPa SW 64.7 km/h 64.7 km/h 54 % 0 mm 610.0 W/m2 CLR
14:25 -9.4 °C -14.4 °C 34577.8 hPa SW 68.6 km/h 68.6 km/h 55 % 0 mm 244.0 W/m2 CLR
14:30 -9.4 °C -14.4 °C 34577.8 hPa SW 38.8 km/h 38.8 km/h 55 % 0 mm 605.0 W/m2 CLR
14:35 -8.8 °C -14.2 °C 34577.8 hPa SSW 80.5 km/h 80.5 km/h 53 % 0 mm 536.0 W/m2 CLR
14:40 -9.1 °C -14.3 °C 34577.8 hPa SW 65.5 km/h 65.5 km/h 54 % 0 mm 482.0 W/m2 CLR
14:45 -9.1 °C -14.4 °C 34567.7 hPa WSW 74.5 km/h 74.5 km/h 53 % 0 mm 434.0 W/m2 CLR
14:50 -9.1 °C -14.4 °C 34567.7 hPa SW 77.4 km/h 77.4 km/h 53 % 0 mm 457.0 W/m2 CLR
14:55 -9.1 °C -14.3 °C 34567.7 hPa WSW 56.6 km/h 56.6 km/h 54 % 0 mm 454.0 W/m2 CLR
15:00 -9.1 °C -14.4 °C 34567.7 hPa West 86.4 km/h 86.4 km/h 53 % 0 mm 420.0 W/m2 CLR
15:05 -9.1 °C -14.3 °C 34567.7 hPa SW 80.5 km/h 80.5 km/h 54 % 0 mm 404.0 W/m2 CLR
15:10 -9.1 °C -14.4 °C 34554.1 hPa WSW 53.6 km/h 53.6 km/h 53 % 0 mm 388.0 W/m2 CLR
15:15 -9.1 °C -14.8 °C 34567.7 hPa SW 110.2 km/h 110.2 km/h 51 % 0 mm 369.0 W/m2 CLR
15:20 -9.4 °C -14.9 °C 34554.1 hPa West 74.5 km/h 74.5 km/h 52 % 0 mm 364.0 W/m2 CLR
15:25 -9.4 °C -14.7 °C 34567.7 hPa SW 80.5 km/h 80.5 km/h 53 % 0 mm 352.0 W/m2 CLR
15:30 -9.4 °C -14.9 °C 34567.7 hPa West 89.3 km/h 89.3 km/h 52 % 0 mm 339.0 W/m2 CLR
15:35 -9.4 °C -14.7 °C 34554.1 hPa SW 68.6 km/h 68.6 km/h 53 % 0 mm 323.0 W/m2 CLR
15:40 -9.4 °C -14.7 °C 34554.1 hPa SW 72.6 km/h 72.6 km/h 53 % 0 mm 313.0 W/m2 CLR
15:45 -9.4 °C -14.7 °C 34554.1 hPa SW 77.4 km/h 77.4 km/h 53 % 0 mm 302.0 W/m2 CLR
15:50 -9.4 °C -14.7 °C 34567.7 hPa WSW 56.6 km/h 56.6 km/h 53 % 0 mm 294.0 W/m2 CLR
15:55 -9.4 °C -14.7 °C 34567.7 hPa SW 77.4 km/h 77.4 km/h 53 % 0 mm 278.0 W/m2 CLR
16:00 -9.4 °C -14.6 °C 34567.7 hPa SW 95.8 km/h 95.8 km/h 54 % 0 mm 264.0 W/m2 CLR
16:05 -9.8 °C -15 °C 34567.7 hPa SW 95.3 km/h 95.3 km/h 53 % 0 mm 246.0 W/m2 CLR
16:10 -9.8 °C -14.9 °C 34567.7 hPa WSW 104.3 km/h 104.3 km/h 54 % 0 mm 236.0 W/m2 CLR
16:15 -9.8 °C -14.7 °C 34567.7 hPa SW 98.3 km/h 98.3 km/h 55 % 0 mm 213.0 W/m2 CLR
16:20 -9.8 °C -14.7 °C 34567.7 hPa SSW 68.6 km/h 68.6 km/h 55 % 0 mm 202.0 W/m2 CLR
16:25 -9.8 °C -14.7 °C 34567.7 hPa WSW 89.3 km/h 89.3 km/h 55 % 0 mm 181.0 W/m2 CLR
16:26 -9.8 °C -14.7 °C 34577.8 hPa NW 71.5 km/h 71.5 km/h 55 % 0 mm 181.0 W/m2 CLR
16:31 -10.1 °C -15 °C 34577.8 hPa WSW 107.2 km/h 107.2 km/h 55 % 0 mm 162.0 W/m2 CLR
16:36 -10.1 °C -14.7 °C 34577.8 hPa SW 86.4 km/h 86.4 km/h 57 % 0 mm 149.0 W/m2 CLR
16:41 -10.1 °C -14.7 °C 34577.8 hPa SW 59.5 km/h 59.5 km/h 57 % 0 mm 130.0 W/m2 CLR
16:46 -10.4 °C -14.9 °C 34577.8 hPa SW 83.4 km/h 83.4 km/h 58 % 0 mm 118.0 W/m2 CLR
16:51 -10.4 °C -14.9 °C 34577.8 hPa WSW 67.3 km/h 67.3 km/h 58 % 0 mm 98.0 W/m2 CLR
16:56 -10.4 °C -14.9 °C 34577.8 hPa WSW 89.3 km/h 89.3 km/h 58 % 0 mm 84.0 W/m2 FEW
17:01 -10.4 °C -14.9 °C 34591.4 hPa SW 77.4 km/h 77.4 km/h 58 % 0 mm 67.0 W/m2 FEW
17:06 -10.4 °C -14.9 °C 34577.8 hPa WSW 71.5 km/h 71.5 km/h 58 % 0 mm 56.0 W/m2 SCT
17:11 -10.4 °C -14.7 °C 34577.8 hPa SW 65.5 km/h 65.5 km/h 59 % 0 mm 46.0 W/m2 SCT
17:16 -10.7 °C -15.1 °C 34591.4 hPa SW 83.4 km/h 83.4 km/h 59 % 0 mm 35.0 W/m2 BKN
17:21 -10.7 °C -15.1 °C 34591.4 hPa SW 71.5 km/h 71.5 km/h 59 % 0 mm 25.0 W/m2 BKN
17:26 -10.7 °C -15.1 °C 34591.4 hPa WSW 89.3 km/h 89.3 km/h 59 % 0 mm 18.0 W/m2 BKN
17:31 -10.7 °C -15.1 °C 34591.4 hPa WSW 89.3 km/h 89.3 km/h 59 % 0 mm 12.0 W/m2 BKN
17:36 -10.7 °C -14.9 °C 34591.4 hPa WSW 90.6 km/h 90.6 km/h 60 % 0 mm 11.0 W/m2 BKN
17:41 -10.7 °C -14.8 °C 34591.4 hPa WSW 74.5 km/h 74.5 km/h 61 % 0 mm 9.0 W/m2 BKN
17:46 -10.7 °C -14.8 °C 34601.5 hPa SW 68.6 km/h 68.6 km/h 61 % 0 mm 7.0 W/m2 BKN
17:51 -11 °C -15.1 °C 34601.5 hPa SSW 69.8 km/h 69.8 km/h 61 % 0 mm 5.0 W/m2 OVC
17:56 -11 °C -15.1 °C 34591.4 hPa WSW 65.5 km/h 65.5 km/h 61 % 0 mm 0.0 W/m2 OVC
18:01 -11 °C -14.9 °C 34591.4 hPa SW 77.4 km/h 77.4 km/h 62 % 0 mm 0.0 W/m2 CLR
18:06 -11 °C -14.9 °C 34591.4 hPa SW 68.6 km/h 68.6 km/h 62 % 0 mm 0.0 W/m2 CLR
18:11 -11 °C -14.9 °C 34591.4 hPa West 68.6 km/h 68.6 km/h 62 % 0 mm 0.0 W/m2 CLR
18:16 -11 °C -14.9 °C 34601.5 hPa SW 62.6 km/h 62.6 km/h 62 % 0 mm 0.0 W/m2 CLR
18:21 -11.3 °C -15.1 °C 34601.5 hPa SW 77.4 km/h 77.4 km/h 63 % 0 mm 0.0 W/m2 CLR
18:26 -11.3 °C -15.1 °C 34601.5 hPa West 68.6 km/h 68.6 km/h 63 % 0 mm 0.0 W/m2 CLR
18:31 -11.3 °C -15.1 °C 34601.5 hPa WSW 68.6 km/h 68.6 km/h 63 % 0 mm 0.0 W/m2 CLR
18:36 -11.3 °C -15.1 °C 34601.5 hPa WSW 71.5 km/h 71.5 km/h 63 % 0 mm 0.0 W/m2 CLR
18:41 -11.3 °C -15.1 °C 34601.5 hPa WSW 65.5 km/h 65.5 km/h 63 % 0 mm 0.0 W/m2 CLR
18:46 -11.3 °C -14.9 °C 34601.5 hPa WSW 67.3 km/h 67.3 km/h 64 % 0 mm 0.0 W/m2 CLR
18:51 -11.3 °C -14.9 °C 34611.7 hPa SW 77.4 km/h 77.4 km/h 64 % 0 mm 0.0 W/m2 CLR
18:56 -11.3 °C -14.9 °C 34601.5 hPa WSW 53.6 km/h 53.6 km/h 64 % 0 mm 0.0 W/m2 CLR
19:01 -11.3 °C -14.9 °C 34611.7 hPa WSW 65.5 km/h 65.5 km/h 64 % 0 mm 0.0 W/m2 CLR
19:07 -11.3 °C -14.9 °C 34611.7 hPa West 77.7 km/h 77.7 km/h 64 % 0 mm 0.0 W/m2 CLR
19:12 -11.3 °C -14.9 °C 34625.2 hPa WSW 68.6 km/h 68.6 km/h 64 % 0 mm 0.0 W/m2 CLR
19:17 -11.3 °C -14.8 °C 34625.2 hPa WSW 68.6 km/h 68.6 km/h 65 % 0 mm 0.0 W/m2 CLR
19:22 -11.3 °C -14.8 °C 34635.4 hPa SW 89.3 km/h 89.3 km/h 65 % 0 mm 0.0 W/m2 CLR
19:27 -11.6 °C -15 °C 34635.4 hPa SSW 86.4 km/h 86.4 km/h 66 % 0 mm 0.0 W/m2 CLR
19:32 -11.6 °C -15 °C 34635.4 hPa SW 56.6 km/h 56.6 km/h 66 % 0 mm 0.0 W/m2 CLR
19:37 -11.6 °C -14.9 °C 34625.2 hPa SW 75.2 km/h 75.2 km/h 67 % 0 mm 0.0 W/m2 CLR
19:42 -11.6 °C -14.9 °C 34635.4 hPa SW 80.5 km/h 80.5 km/h 67 % 0 mm 0.0 W/m2 CLR
19:47 -11.6 °C -14.9 °C 34625.2 hPa SW 59.5 km/h 59.5 km/h 67 % 0 mm 0.0 W/m2 CLR
19:52 -11.6 °C -14.9 °C 34635.4 hPa SW 86.4 km/h 86.4 km/h 67 % 0 mm 0.0 W/m2 CLR
19:57 -11.6 °C -14.9 °C 34635.4 hPa SW 83.4 km/h 83.4 km/h 67 % 0 mm 0.0 W/m2 CLR
20:02 -11.6 °C -14.9 °C 34635.4 hPa SSW 68.6 km/h 68.6 km/h 67 % 0 mm 0.0 W/m2 CLR
20:07 -11.6 °C -14.9 °C 34635.4 hPa WSW 77.4 km/h 77.4 km/h 67 % 0 mm 0.0 W/m2 CLR
20:12 -11.6 °C -14.9 °C 34635.4 hPa SW 67.3 km/h 67.3 km/h 67 % 0 mm 0.0 W/m2 CLR
20:17 -11.9 °C -15.2 °C 34635.4 hPa WSW 71.5 km/h 71.5 km/h 67 % 0 mm 0.0 W/m2 CLR
20:22 -11.9 °C -15.2 °C 34635.4 hPa WSW 71.5 km/h 71.5 km/h 67 % 0 mm 0.0 W/m2 CLR
20:27 -11.9 °C -15.1 °C 34635.4 hPa SW 71.5 km/h 71.5 km/h 68 % 0 mm 0.0 W/m2 CLR
20:32 -11.9 °C -15.2 °C 34645.6 hPa WSW 65.5 km/h 65.5 km/h 67 % 0 mm 0.0 W/m2 CLR
20:37 -11.9 °C -15.1 °C 34645.6 hPa WSW 83.4 km/h 83.4 km/h 68 % 0 mm 0.0 W/m2 CLR
20:42 -11.9 °C -15.1 °C 34645.6 hPa WSW 80.3 km/h 80.3 km/h 68 % 0 mm 0.0 W/m2 CLR
20:47 -11.9 °C -15.1 °C 34645.6 hPa West 68.6 km/h 68.6 km/h 68 % 0 mm 0.0 W/m2 CLR
20:52 -11.9 °C -15.1 °C 34645.6 hPa West 82.9 km/h 82.9 km/h 68 % 0 mm 0.0 W/m2 CLR
20:57 -11.9 °C -15.1 °C 34635.4 hPa WSW 77.7 km/h 77.7 km/h 68 % 0 mm 0.0 W/m2 CLR
21:07 -11.9 °C -15.1 °C 34635.4 hPa SW 68.6 km/h 68.6 km/h 68 % 0 mm 0.0 W/m2 CLR
21:12 -11.9 °C -14.9 °C 34645.6 hPa WSW 65.5 km/h 65.5 km/h 69 % 0 mm 0.0 W/m2 CLR
21:17 -11.9 °C -14.9 °C 34645.6 hPa SW 65.5 km/h 65.5 km/h 69 % 0 mm 0.0 W/m2 CLR
21:22 -11.9 °C -14.9 °C 34645.6 hPa SW 68.6 km/h 68.6 km/h 69 % 0 mm 0.0 W/m2 CLR
21:28 -11.9 °C -14.9 °C 34645.6 hPa SW 69.8 km/h 69.8 km/h 69 % 0 mm 0.0 W/m2 CLR
21:33 -11.9 °C -14.9 °C 34645.6 hPa West 74.5 km/h 74.5 km/h 69 % 0 mm 0.0 W/m2 CLR
21:38 -11.9 °C -14.9 °C 34645.6 hPa WSW 59.5 km/h 59.5 km/h 69 % 0 mm 0.0 W/m2 CLR
21:43 -11.9 °C -15.1 °C 34645.6 hPa WSW 71.5 km/h 71.5 km/h 68 % 0 mm 0.0 W/m2
21:48 -11.9 °C -15.1 °C 34645.6 hPa SW 65.5 km/h 65.5 km/h 68 % 0 mm 0.0 W/m2 CLR
21:53 -11.9 °C -15.1 °C 34645.6 hPa SW 83.4 km/h 83.4 km/h 68 % 0 mm 0.0 W/m2 CLR
21:58 -11.9 °C -15.1 °C 34659.1 hPa West 62.6 km/h 62.6 km/h 68 % 0 mm 0.0 W/m2 CLR
22:03 -11.9 °C -15.1 °C 34659.1 hPa WSW 65.5 km/h 65.5 km/h 68 % 0 mm 0.0 W/m2 CLR
22:08 -11.9 °C -15.1 °C 34659.1 hPa SW 77.4 km/h 77.4 km/h 68 % 0 mm 0.0 W/m2 CLR
22:13 -11.9 °C -15.1 °C 34645.6 hPa WSW 80.5 km/h 80.5 km/h 68 % 0 mm 0.0 W/m2 CLR
22:18 -11.9 °C -15.1 °C 34645.6 hPa SW 77.4 km/h 77.4 km/h 68 % 0 mm 0.0 W/m2 CLR
22:23 -11.9 °C -15.1 °C 34659.1 hPa SW 74.5 km/h 74.5 km/h 68 % 0 mm 0.0 W/m2 CLR
22:33 -11.9 °C -15.1 °C 34659.1 hPa SW 71.5 km/h 71.5 km/h 68 % 0 mm 0.0 W/m2 CLR
22:38 -11.9 °C -15.1 °C 34645.6 hPa SW 89.3 km/h 89.3 km/h 68 % 0 mm 0.0 W/m2 CLR
22:43 -11.9 °C -15.1 °C 34635.4 hPa WSW 95.3 km/h 95.3 km/h 68 % 0 mm 0.0 W/m2 CLR
22:48 -11.9 °C -15.1 °C 34645.6 hPa SW 71.5 km/h 71.5 km/h 68 % 0 mm 0.0 W/m2 CLR
22:53 -11.9 °C -15.1 °C 34659.1 hPa WSW 68.6 km/h 68.6 km/h 68 % 0 mm 0.0 W/m2 CLR
22:58 -11.9 °C -15.1 °C 34659.1 hPa SW 50.7 km/h 50.7 km/h 68 % 0 mm 0.0 W/m2 CLR
23:03 -12.2 °C -15.2 °C 34669.3 hPa WSW 50.7 km/h 50.7 km/h 69 % 0 mm 0.0 W/m2 CLR
23:08 -12.2 °C -15.2 °C 34669.3 hPa WSW 65.5 km/h 65.5 km/h 69 % 0 mm 0.0 W/m2 CLR
23:13 -11.9 °C -14.9 °C 34659.1 hPa SW 68.6 km/h 68.6 km/h 69 % 0 mm 0.0 W/m2 CLR
23:18 -12.2 °C -15.2 °C 34659.1 hPa WSW 64.7 km/h 64.7 km/h 69 % 0 mm 0.0 W/m2 CLR
23:23 -12.2 °C -15.2 °C 34645.6 hPa SW 71.5 km/h 71.5 km/h 69 % 0 mm 0.0 W/m2 CLR
23:28 -12.2 °C -15.2 °C 34659.1 hPa WSW 77.4 km/h 77.4 km/h 69 % 0 mm 0.0 W/m2 CLR
23:33 -12.2 °C -15.2 °C 34659.1 hPa SW 86.4 km/h 86.4 km/h 69 % 0 mm 0.0 W/m2 CLR
23:38 -12.2 °C -15.1 °C 34645.6 hPa SW 86.4 km/h 86.4 km/h 70 % 0 mm 0.0 W/m2 CLR
23:43 -12.2 °C -15.1 °C 34659.1 hPa SW 59.5 km/h 59.5 km/h 70 % 0 mm 0.0 W/m2 CLR
23:48 -12.2 °C -15 °C 34645.6 hPa SW 62.6 km/h 62.6 km/h 71 % 0 mm 0.0 W/m2 CLR
23:53 -12.2 °C -15 °C 34645.6 hPa SW 77.4 km/h 77.4 km/h 71 % 0 mm 0.0 W/m2 CLR
23:58 -12.2 °C -15 °C 34645.6 hPa WSW 59.5 km/h 59.5 km/h 71 % 0 mm 0.0 W/m2 CLR
Lo Temps de Massalio
Compliments of Weather Underground - 1.25 mb